Accueil
METAR-TAF:

METAR-TAF

Aéroports :

Büchel, Allemagne

Base aérienne de Büchel

latitude: 50-10N, longitude: 007-04E, altitude: 478 m

Observation

Le bulletin a été fait il y a 33 minutes, à 03:20 UTC
Vent 4 kt de sud-ouest
Température 2°C
Humidité 100%
Pression 983 hPa
Visibilité: 0200 m

METAR: ETSB 110320Z AUTO 22004KT 0200 // ////// 02/02 Q0983 ///

Heure: 04:53 (03:53 UTC)


TAF: absent

Observations et prévisions météorologiques de plus de 4000 aéroports (messages METAR et TAF).

Les stations disponibles sont représentées par des disques jaunes et rouges sur la carte.

Passer la souris dessus pour voir le nom de la station.

Cliquer dessus pour voir les observations et prévisions météorologiques.

Pour changer de carte: cliquez sur les boutons verts avec une croix noire pour zoomer, sur le bouton vert avec un tiret pour effectuer un zoom arrière, ou sur les flèches vertes pour les cartes adjacentes.


METAR-TAF: